EDDNELLX

Guest
Details From EDDN - Nurnberg
To ELLX - Luxembourg
Flight Number -
Tags Decoded
Created
Modified
Stats Distance 190 nm / 352 km
Max Altitude 0 ft / 0 m
Waypoints 2
Social Downloads 1
Likes 0
Share VATSIM

Download

Looking for another format? Having issues loading an existing format? Contact us
Advertisement - Login to hide

Notes

Decoded

Route

EDDN ELLX

ID Type Via Altitude Latitude Longitude Leg Dist Tot Dist Heading (true) Name
O EDDN APT - 0 ft / 0 m 49.50055˚ 11.05918˚ - 0 nm - -
O ELLX APT - 0 ft / 0 m 49.61767˚ 6.18746˚ 189 nm 189 nm 274° / 270° -

Altitude Profile

Advertisement - Login to hide

Weather


0- 5 10 15 20 25 30 35+ Temperature / ° C

Clouds and Precipitation
Forecast for 2018-05-27 18:00 UTC. Updated 28 minutes ago

Ground ~20,000 ft ~40,000 ft Winds

EDDN

Details ICAO EDDN (NUE)
Name Nurnberg
Region Germany - Civil
Timezone Europe/Berlin (UTC+2.0)
Stats Elevation 1,045 ft / 319 m (AMSL)
Location 49.498744° 11.077580°
Runways 1
Magnetic Variation 3.075° E

METAR

EDDN 271720Z 01004KT CAVOK 26/15 Q1017 NOSIG

Decode

TAF

TAF EDDN 271100Z 2712/2812 11005KT CAVOK PROB30 TEMPO 2713/2718 12015G25KT TSRA SCT050CB BECMG 2717/2719 VRB03KT BECMG 2806/2808 08006KT

Decode

Departure Runways

ID Width Length Bearing (true) Bearing (mag) Surface Threshold Offset Overrun Length
10 148 ft / 45 m 8,819 ft / 2,688 m 98.60° 95.52° Asphalt 0 ft / 0 m 0 ft / 0 m
28 148 ft / 45 m 8,819 ft / 2,688 m 278.63° 275.55° Asphalt 0 ft / 0 m 0 ft / 0 m

ELLX

Details ICAO ELLX (LUX)
Name Luxembourg
Region Luxembourg
Timezone Europe/Luxembourg (UTC+2.0)
Stats Elevation 1,158 ft / 353 m (AMSL)
Location 49.626599° 6.211506°
Runways 1
Magnetic Variation 1.749° E

METAR

ELLX 271720Z 30006KT 230V010 CAVOK 22/18 Q1017 NOSIG

Decode

TAF

TAF ELLX 271100Z 2712/2818 19006KT 9999 SCT040 TEMPO 2712/2719 SHRA SCT025CB PROB30 TEMPO 2713/2718 VRB15G25KT 4000 TSRA BKN012CB BECMG 2719/2721 06006KT TEMPO 2815/2818 VRB15G35KT 3000 TSRAGR BKN010CB

Decode

Destination Runways

ID Width Length Bearing (true) Bearing (mag) Surface Threshold Offset Overrun Length
06 197 ft / 60 m 13,135 ft / 4,004 m 60.14° 58.39° Asphalt 0 ft / 0 m 0 ft / 0 m
24 197 ft / 60 m 13,135 ft / 4,004 m 240.18° 238.43° Asphalt 0 ft / 0 m 180 ft / 55 m

Approach Navaids

Runway Type Ident Frequency Range Bearing (true) Bearing (mag) Slope Elevation
06 Localiser ILE 109.90 MHz 18 nm / 33 km 60.21° 58.46° - 1,158 ft / 353 m (AMSL)
06 Glidescope ILE 109.90 MHz 10 nm / 19 km 60.16° 58.41° 3.00° 1,158 ft / 353 m (AMSL)
06 DME ILE 109.90 MHz 18 nm / 33 km - - - 1,158 ft / 353 m (AMSL)
24 Localiser ILW 110.70 MHz 18 nm / 33 km 239.94° 238.19° - 1,158 ft / 353 m (AMSL)
24 Glidescope ILW 110.70 MHz 10 nm / 19 km 240.16° 238.41° 3.00° 1,158 ft / 353 m (AMSL)
24 DME ILW 110.70 MHz 18 nm / 33 km - - - 1,158 ft / 353 m (AMSL)

Popular Alternatives